West Mecca, Ohio
Current Conditions -  °F | °C
As of 10:51 PM on Wednesday 28 Jan 2015 (Local Time) from KYNG Reporting Station
Overcast Overcast  
Wind Chill: 10°   Ceiling: 15000
Heat Index: 20°   Visibility: 10mi
Dew Point:   Wind: 8mph
Humidity: 57%   Direction: 150°SSE
Pressure: 30.23"   Gusts: NA
Location:  41.3436°N, 80.7192°W
Report Text: KYNG 290351Z 15007KT 10SM SCT120 BKN150 OVC210 M07/M14 A3023 RMK AO2 SLP260 T10671139
Loading
Personal Weather Stations






























Interactive Weather Map New forecast layout! Learn more

10-Day Weather Forecast

Advertisements
Track Severe Weather on mobile